sensor_id;sensor_type;location;lat;lon;timestamp;P1;durP1;ratioP1;P2;durP2;ratioP2
49834;SDS011;35729;52.090;13.162;2023-05-16T00:01:07;10.20;;;8.35;;
49834;SDS011;35729;52.090;13.162;2023-05-16T00:03:39;11.25;;;7.97;;
49834;SDS011;35729;52.090;13.162;2023-05-16T00:06:14;11.00;;;7.90;;
49834;SDS011;35729;52.090;13.162;2023-05-16T00:08:42;9.27;;;8.25;;
49834;SDS011;35729;52.090;13.162;2023-05-16T00:11:11;9.50;;;8.50;;
49834;SDS011;35729;52.090;13.162;2023-05-16T00:13:39;12.38;;;9.57;;
49834;SDS011;35729;52.090;13.162;2023-05-16T00:16:08;11.63;;;8.93;;
49834;SDS011;35729;52.090;13.162;2023-05-16T00:18:41;9.75;;;8.75;;
49834;SDS011;35729;52.090;13.162;2023-05-16T00:21:09;13.18;;;8.93;;
49834;SDS011;35729;52.090;13.162;2023-05-16T00:23:39;10.45;;;9.00;;
49834;SDS011;35729;52.090;13.162;2023-05-16T00:26:07;11.60;;;9.38;;
49834;SDS011;35729;52.090;13.162;2023-05-16T00:28:36;13.18;;;10.07;;
49834;SDS011;35729;52.090;13.162;2023-05-16T00:31:04;11.52;;;10.32;;
49834;SDS011;35729;52.090;13.162;2023-05-16T00:33:33;15.45;;;11.00;;
49834;SDS011;35729;52.090;13.162;2023-05-16T00:36:04;13.48;;;10.45;;
49834;SDS011;35729;52.090;13.162;2023-05-16T00:38:33;13.38;;;9.60;;
49834;SDS011;35729;52.090;13.162;2023-05-16T00:41:01;10.93;;;9.65;;
49834;SDS011;35729;52.090;13.162;2023-05-16T00:43:30;11.80;;;10.68;;
49834;SDS011;35729;52.090;13.162;2023-05-16T00:45:58;11.90;;;10.70;;
49834;SDS011;35729;52.090;13.162;2023-05-16T00:48:27;13.48;;;10.25;;
49834;SDS011;35729;52.090;13.162;2023-05-16T00:50:56;11.43;;;10.18;;
49834;SDS011;35729;52.090;13.162;2023-05-16T00:53:27;12.20;;;9.50;;
49834;SDS011;35729;52.090;13.162;2023-05-16T00:55:56;12.77;;;10.35;;
49834;SDS011;35729;52.090;13.162;2023-05-16T00:58:25;11.73;;;10.52;;
49834;SDS011;35729;52.090;13.162;2023-05-16T01:00:54;12.55;;;11.30;;
49834;SDS011;35729;52.090;13.162;2023-05-16T01:03:23;11.18;;;10.07;;
49834;SDS011;35729;52.090;13.162;2023-05-16T01:05:51;14.15;;;10.85;;
49834;SDS011;35729;52.090;13.162;2023-05-16T01:08:20;13.40;;;10.73;;
49834;SDS011;35729;52.090;13.162;2023-05-16T01:10:52;14.38;;;10.95;;
49834;SDS011;35729;52.090;13.162;2023-05-16T01:13:30;13.00;;;10.63;;
49834;SDS011;35729;52.090;13.162;2023-05-16T01:16:04;11.70;;;10.50;;
49834;SDS011;35729;52.090;13.162;2023-05-16T01:18:41;11.95;;;10.45;;
49834;SDS011;35729;52.090;13.162;2023-05-16T01:21:18;13.70;;;11.27;;
49834;SDS011;35729;52.090;13.162;2023-05-16T01:24:05;12.02;;;10.85;;
49834;SDS011;35729;52.090;13.162;2023-05-16T01:26:43;14.27;;;11.60;;
49834;SDS011;35729;52.090;13.162;2023-05-16T01:29:13;13.88;;;11.90;;
49834;SDS011;35729;52.090;13.162;2023-05-16T01:31:43;15.73;;;11.80;;
49834;SDS011;35729;52.090;13.162;2023-05-16T01:34:11;15.32;;;11.32;;
49834;SDS011;35729;52.090;13.162;2023-05-16T01:36:41;13.40;;;12.07;;
49834;SDS011;35729;52.090;13.162;2023-05-16T01:39:17;12.25;;;10.77;;
49834;SDS011;35729;52.090;13.162;2023-05-16T01:41:54;12.70;;;11.25;;
49834;SDS011;35729;52.090;13.162;2023-05-16T01:44:30;13.23;;;11.25;;
49834;SDS011;35729;52.090;13.162;2023-05-16T01:47:01;11.15;;;9.90;;
49834;SDS011;35729;52.090;13.162;2023-05-16T01:49:35;12.07;;;10.73;;
49834;SDS011;35729;52.090;13.162;2023-05-16T01:52:10;12.13;;;10.40;;
49834;SDS011;35729;52.090;13.162;2023-05-16T01:54:43;13.63;;;11.00;;
49834;SDS011;35729;52.090;13.162;2023-05-16T01:57:16;13.93;;;12.25;;
49834;SDS011;35729;52.090;13.162;2023-05-16T01:59:47;16.37;;;12.17;;
49834;SDS011;35729;52.090;13.162;2023-05-16T02:02:16;12.75;;;11.00;;
49834;SDS011;35729;52.090;13.162;2023-05-16T02:04:45;15.80;;;11.40;;
49834;SDS011;35729;52.090;13.162;2023-05-16T02:07:13;14.73;;;11.73;;
49834;SDS011;35729;52.090;13.162;2023-05-16T02:09:42;16.23;;;11.95;;
49834;SDS011;35729;52.090;13.162;2023-05-16T02:12:11;15.30;;;11.07;;
49834;SDS011;35729;52.090;13.162;2023-05-16T02:14:42;13.40;;;11.18;;
49834;SDS011;35729;52.090;13.162;2023-05-16T02:17:17;13.63;;;10.93;;
49834;SDS011;35729;52.090;13.162;2023-05-16T02:19:46;13.68;;;10.88;;
49834;SDS011;35729;52.090;13.162;2023-05-16T02:22:14;15.57;;;10.60;;
49834;SDS011;35729;52.090;13.162;2023-05-16T02:24:43;12.75;;;10.35;;
49834;SDS011;35729;52.090;13.162;2023-05-16T02:27:11;13.35;;;10.27;;
49834;SDS011;35729;52.090;13.162;2023-05-16T02:29:42;11.85;;;9.73;;
49834;SDS011;35729;52.090;13.162;2023-05-16T02:32:11;11.10;;;9.50;;
49834;SDS011;35729;52.090;13.162;2023-05-16T02:34:39;12.50;;;10.55;;
49834;SDS011;35729;52.090;13.162;2023-05-16T02:37:08;11.57;;;10.32;;
49834;SDS011;35729;52.090;13.162;2023-05-16T02:39:36;14.55;;;10.52;;
49834;SDS011;35729;52.090;13.162;2023-05-16T02:42:05;15.15;;;10.57;;
49834;SDS011;35729;52.090;13.162;2023-05-16T02:44:34;11.65;;;10.40;;
49834;SDS011;35729;52.090;13.162;2023-05-16T02:47:05;13.57;;;10.48;;
49834;SDS011;35729;52.090;13.162;2023-05-16T02:49:34;15.25;;;10.30;;
49834;SDS011;35729;52.090;13.162;2023-05-16T02:52:02;12.93;;;10.95;;
49834;SDS011;35729;52.090;13.162;2023-05-16T02:54:31;14.23;;;11.52;;
49834;SDS011;35729;52.090;13.162;2023-05-16T02:57:00;11.05;;;9.90;;
49834;SDS011;35729;52.090;13.162;2023-05-16T02:59:28;13.40;;;9.98;;
49834;SDS011;35729;52.090;13.162;2023-05-16T03:01:57;13.45;;;11.10;;
49834;SDS011;35729;52.090;13.162;2023-05-16T03:04:28;15.23;;;11.80;;
49834;SDS011;35729;52.090;13.162;2023-05-16T03:06:56;13.90;;;12.50;;
49834;SDS011;35729;52.090;13.162;2023-05-16T03:09:25;14.07;;;12.32;;
49834;SDS011;35729;52.090;13.162;2023-05-16T03:11:53;14.77;;;12.50;;
49834;SDS011;35729;52.090;13.162;2023-05-16T03:14:23;15.75;;;12.73;;
49834;SDS011;35729;52.090;13.162;2023-05-16T03:16:52;14.77;;;12.27;;
49834;SDS011;35729;52.090;13.162;2023-05-16T03:19:20;16.95;;;13.32;;
49834;SDS011;35729;52.090;13.162;2023-05-16T03:21:51;19.30;;;14.50;;
49834;SDS011;35729;52.090;13.162;2023-05-16T03:24:20;19.17;;;14.35;;
49834;SDS011;35729;52.090;13.162;2023-05-16T03:26:49;17.65;;;14.98;;
49834;SDS011;35729;52.090;13.162;2023-05-16T03:29:17;19.45;;;14.00;;
49834;SDS011;35729;52.090;13.162;2023-05-16T03:31:46;16.70;;;15.00;;
49834;SDS011;35729;52.090;13.162;2023-05-16T03:34:21;16.98;;;14.35;;
49834;SDS011;35729;52.090;13.162;2023-05-16T03:36:52;16.58;;;14.82;;
49834;SDS011;35729;52.090;13.162;2023-05-16T03:39:20;17.17;;;15.32;;
49834;SDS011;35729;52.090;13.162;2023-05-16T03:41:49;19.00;;;14.82;;
49834;SDS011;35729;52.090;13.162;2023-05-16T03:44:20;20.38;;;16.02;;
49834;SDS011;35729;52.090;13.162;2023-05-16T03:46:48;22.02;;;14.02;;
49834;SDS011;35729;52.090;13.162;2023-05-16T03:49:22;17.55;;;15.63;;
49834;SDS011;35729;52.090;13.162;2023-05-16T03:51:56;18.02;;;15.07;;
49834;SDS011;35729;52.090;13.162;2023-05-16T03:54:24;18.88;;;14.80;;
49834;SDS011;35729;52.090;13.162;2023-05-16T03:56:53;16.80;;;13.68;;
49834;SDS011;35729;52.090;13.162;2023-05-16T03:59:21;17.05;;;15.23;;
49834;SDS011;35729;52.090;13.162;2023-05-16T04:01:50;20.65;;;15.18;;
49834;SDS011;35729;52.090;13.162;2023-05-16T04:04:18;18.10;;;15.50;;
49834;SDS011;35729;52.090;13.162;2023-05-16T04:06:47;17.23;;;15.10;;
49834;SDS011;35729;52.090;13.162;2023-05-16T04:09:18;18.42;;;14.95;;
49834;SDS011;35729;52.090;13.162;2023-05-16T04:11:47;22.10;;;15.98;;
49834;SDS011;35729;52.090;13.162;2023-05-16T04:14:15;19.70;;;15.48;;
49834;SDS011;35729;52.090;13.162;2023-05-16T04:16:44;16.60;;;14.10;;
49834;SDS011;35729;52.090;13.162;2023-05-16T04:19:13;18.15;;;15.18;;
49834;SDS011;35729;52.090;13.162;2023-05-16T04:21:41;17.80;;;14.43;;
49834;SDS011;35729;52.090;13.162;2023-05-16T04:24:10;21.17;;;14.73;;
49834;SDS011;35729;52.090;13.162;2023-05-16T04:26:41;17.50;;;14.55;;
49834;SDS011;35729;52.090;13.162;2023-05-16T04:29:09;19.42;;;14.27;;
49834;SDS011;35729;52.090;13.162;2023-05-16T04:31:38;17.45;;;14.77;;
49834;SDS011;35729;52.090;13.162;2023-05-16T04:34:07;15.98;;;13.90;;
49834;SDS011;35729;52.090;13.162;2023-05-16T04:36:36;16.30;;;13.57;;
49834;SDS011;35729;52.090;13.162;2023-05-16T04:39:05;17.58;;;14.55;;
49834;SDS011;35729;52.090;13.162;2023-05-16T04:41:33;19.02;;;13.77;;
49834;SDS011;35729;52.090;13.162;2023-05-16T04:44:05;17.42;;;13.10;;
49834;SDS011;35729;52.090;13.162;2023-05-16T04:46:35;16.40;;;14.52;;
49834;SDS011;35729;52.090;13.162;2023-05-16T04:49:03;16.85;;;13.55;;
49834;SDS011;35729;52.090;13.162;2023-05-16T04:51:32;17.30;;;12.75;;
49834;SDS011;35729;52.090;13.162;2023-05-16T04:54:01;13.15;;;10.45;;
49834;SDS011;35729;52.090;13.162;2023-05-16T04:56:29;12.15;;;10.75;;
49834;SDS011;35729;52.090;13.162;2023-05-16T04:58:58;15.77;;;11.27;;
49834;SDS011;35729;52.090;13.162;2023-05-16T05:01:29;13.57;;;9.80;;
49834;SDS011;35729;52.090;13.162;2023-05-16T05:03:57;11.18;;;9.60;;
49834;SDS011;35729;52.090;13.162;2023-05-16T05:06:26;12.02;;;8.55;;
49834;SDS011;35729;52.090;13.162;2023-05-16T05:08:55;14.55;;;9.68;;
49834;SDS011;35729;52.090;13.162;2023-05-16T05:11:24;12.07;;;9.38;;
49834;SDS011;35729;52.090;13.162;2023-05-16T05:13:53;12.27;;;9.32;;
49834;SDS011;35729;52.090;13.162;2023-05-16T05:16:21;11.48;;;9.40;;
49834;SDS011;35729;52.090;13.162;2023-05-16T05:18:52;12.90;;;9.05;;
49834;SDS011;35729;52.090;13.162;2023-05-16T05:21:21;10.40;;;7.63;;
49834;SDS011;35729;52.090;13.162;2023-05-16T05:23:49;12.57;;;8.20;;
49834;SDS011;35729;52.090;13.162;2023-05-16T05:26:18;11.38;;;7.97;;
49834;SDS011;35729;52.090;13.162;2023-05-16T05:28:47;9.00;;;7.60;;
49834;SDS011;35729;52.090;13.162;2023-05-16T05:31:16;10.63;;;7.22;;
49834;SDS011;35729;52.090;13.162;2023-05-16T05:33:45;11.88;;;7.22;;
49834;SDS011;35729;52.090;13.162;2023-05-16T05:36:16;11.45;;;7.78;;
49834;SDS011;35729;52.090;13.162;2023-05-16T05:38:44;7.32;;;6.38;;
49834;SDS011;35729;52.090;13.162;2023-05-16T05:41:13;10.30;;;7.15;;
49834;SDS011;35729;52.090;13.162;2023-05-16T05:43:41;9.43;;;6.72;;
49834;SDS011;35729;52.090;13.162;2023-05-16T05:46:10;11.80;;;7.40;;
49834;SDS011;35729;52.090;13.162;2023-05-16T05:48:38;10.52;;;6.78;;
49834;SDS011;35729;52.090;13.162;2023-05-16T05:51:07;11.65;;;7.50;;
49834;SDS011;35729;52.090;13.162;2023-05-16T05:53:40;11.40;;;7.82;;
49834;SDS011;35729;52.090;13.162;2023-05-16T05:56:09;11.25;;;6.90;;
49834;SDS011;35729;52.090;13.162;2023-05-16T05:58:37;11.15;;;7.47;;
49834;SDS011;35729;52.090;13.162;2023-05-16T06:01:09;11.68;;;7.70;;
49834;SDS011;35729;52.090;13.162;2023-05-16T06:03:38;8.93;;;7.25;;
49834;SDS011;35729;52.090;13.162;2023-05-16T06:06:07;9.30;;;6.60;;
49834;SDS011;35729;52.090;13.162;2023-05-16T06:08:35;11.85;;;8.05;;
49834;SDS011;35729;52.090;13.162;2023-05-16T06:11:06;11.48;;;7.50;;
49834;SDS011;35729;52.090;13.162;2023-05-16T06:13:35;14.05;;;7.45;;
49834;SDS011;35729;52.090;13.162;2023-05-16T06:16:03;10.13;;;6.95;;
49834;SDS011;35729;52.090;13.162;2023-05-16T06:18:32;11.77;;;6.90;;
49834;SDS011;35729;52.090;13.162;2023-05-16T06:21:01;13.00;;;7.40;;
49834;SDS011;35729;52.090;13.162;2023-05-16T06:23:29;12.32;;;6.78;;
49834;SDS011;35729;52.090;13.162;2023-05-16T06:25:58;11.52;;;6.95;;
49834;SDS011;35729;52.090;13.162;2023-05-16T06:28:29;9.05;;;6.97;;
49834;SDS011;35729;52.090;13.162;2023-05-16T06:30:58;13.73;;;6.78;;
49834;SDS011;35729;52.090;13.162;2023-05-16T06:33:27;10.50;;;6.80;;
49834;SDS011;35729;52.090;13.162;2023-05-16T06:35:55;10.02;;;6.63;;
49834;SDS011;35729;52.090;13.162;2023-05-16T06:38:24;9.43;;;6.35;;
49834;SDS011;35729;52.090;13.162;2023-05-16T06:40:52;9.07;;;6.65;;
49834;SDS011;35729;52.090;13.162;2023-05-16T06:43:21;10.30;;;7.25;;
49834;SDS011;35729;52.090;13.162;2023-05-16T06:45:52;11.43;;;6.55;;
49834;SDS011;35729;52.090;13.162;2023-05-16T06:48:21;9.35;;;7.30;;
49834;SDS011;35729;52.090;13.162;2023-05-16T06:50:49;8.80;;;6.70;;
49834;SDS011;35729;52.090;13.162;2023-05-16T06:53:18;10.48;;;5.88;;
49834;SDS011;35729;52.090;13.162;2023-05-16T06:55:47;12.32;;;6.30;;
49834;SDS011;35729;52.090;13.162;2023-05-16T06:58:16;7.70;;;6.07;;
49834;SDS011;35729;52.090;13.162;2023-05-16T07:00:44;8.57;;;6.05;;
49834;SDS011;35729;52.090;13.162;2023-05-16T07:03:15;9.32;;;5.97;;
49834;SDS011;35729;52.090;13.162;2023-05-16T07:05:44;10.00;;;5.93;;
49834;SDS011;35729;52.090;13.162;2023-05-16T07:08:12;8.90;;;5.47;;
49834;SDS011;35729;52.090;13.162;2023-05-16T07:10:41;8.60;;;5.32;;
49834;SDS011;35729;52.090;13.162;2023-05-16T07:13:09;9.50;;;6.15;;
49834;SDS011;35729;52.090;13.162;2023-05-16T07:15:38;9.60;;;5.88;;
49834;SDS011;35729;52.090;13.162;2023-05-16T07:18:06;9.02;;;6.60;;
49834;SDS011;35729;52.090;13.162;2023-05-16T07:20:38;11.35;;;6.28;;
49834;SDS011;35729;52.090;13.162;2023-05-16T07:23:06;8.27;;;6.25;;
49834;SDS011;35729;52.090;13.162;2023-05-16T07:25:35;9.50;;;6.57;;
49834;SDS011;35729;52.090;13.162;2023-05-16T07:28:03;11.57;;;6.43;;
49834;SDS011;35729;52.090;13.162;2023-05-16T07:30:32;12.18;;;8.07;;
49834;SDS011;35729;52.090;13.162;2023-05-16T07:33:01;12.82;;;9.02;;
49834;SDS011;35729;52.090;13.162;2023-05-16T07:35:30;9.50;;;7.13;;
49834;SDS011;35729;52.090;13.162;2023-05-16T07:38:01;10.27;;;7.50;;
49834;SDS011;35729;52.090;13.162;2023-05-16T07:40:29;10.38;;;7.20;;
49834;SDS011;35729;52.090;13.162;2023-05-16T07:42:58;11.68;;;7.07;;
49834;SDS011;35729;52.090;13.162;2023-05-16T07:45:26;8.52;;;7.45;;
49834;SDS011;35729;52.090;13.162;2023-05-16T07:47:55;10.55;;;7.13;;
49834;SDS011;35729;52.090;13.162;2023-05-16T07:50:24;7.95;;;6.63;;
49834;SDS011;35729;52.090;13.162;2023-05-16T07:52:53;10.05;;;6.60;;
49834;SDS011;35729;52.090;13.162;2023-05-16T07:55:24;9.82;;;7.13;;
49834;SDS011;35729;52.090;13.162;2023-05-16T07:57:52;12.00;;;8.77;;
49834;SDS011;35729;52.090;13.162;2023-05-16T08:00:21;9.82;;;6.18;;
49834;SDS011;35729;52.090;13.162;2023-05-16T08:02:50;9.73;;;7.22;;
49834;SDS011;35729;52.090;13.162;2023-05-16T08:05:19;7.07;;;6.13;;
49834;SDS011;35729;52.090;13.162;2023-05-16T08:07:48;7.13;;;6.45;;
49834;SDS011;35729;52.090;13.162;2023-05-16T08:10:25;7.30;;;6.45;;
49834;SDS011;35729;52.090;13.162;2023-05-16T08:12:54;7.03;;;6.20;;
49834;SDS011;35729;52.090;13.162;2023-05-16T08:15:22;8.30;;;6.65;;
49834;SDS011;35729;52.090;13.162;2023-05-16T08:17:53;16.25;;;8.25;;
49834;SDS011;35729;52.090;13.162;2023-05-16T08:20:25;7.85;;;6.45;;
49834;SDS011;35729;52.090;13.162;2023-05-16T08:22:53;8.05;;;6.30;;
49834;SDS011;35729;52.090;13.162;2023-05-16T08:25:25;9.68;;;6.97;;
49834;SDS011;35729;52.090;13.162;2023-05-16T08:27:53;7.28;;;6.00;;
49834;SDS011;35729;52.090;13.162;2023-05-16T08:30:22;7.88;;;5.82;;
49834;SDS011;35729;52.090;13.162;2023-05-16T08:32:50;6.57;;;5.18;;
49834;SDS011;35729;52.090;13.162;2023-05-16T08:35:19;5.28;;;4.78;;
49834;SDS011;35729;52.090;13.162;2023-05-16T08:37:47;5.85;;;5.25;;
49834;SDS011;35729;52.090;13.162;2023-05-16T08:40:16;7.57;;;5.13;;
49834;SDS011;35729;52.090;13.162;2023-05-16T08:42:48;6.00;;;5.03;;
49834;SDS011;35729;52.090;13.162;2023-05-16T08:45:17;5.47;;;4.95;;
49834;SDS011;35729;52.090;13.162;2023-05-16T08:47:46;6.03;;;4.40;;
49834;SDS011;35729;52.090;13.162;2023-05-16T08:50:17;5.28;;;4.60;;
49834;SDS011;35729;52.090;13.162;2023-05-16T08:52:46;6.68;;;4.55;;
49834;SDS011;35729;52.090;13.162;2023-05-16T08:55:18;6.28;;;4.88;;
49834;SDS011;35729;52.090;13.162;2023-05-16T08:57:50;5.70;;;5.03;;
49834;SDS011;35729;52.090;13.162;2023-05-16T09:00:22;5.32;;;4.28;;
49834;SDS011;35729;52.090;13.162;2023-05-16T09:02:58;4.63;;;4.05;;
49834;SDS011;35729;52.090;13.162;2023-05-16T09:05:28;8.32;;;4.88;;
49834;SDS011;35729;52.090;13.162;2023-05-16T09:07:57;7.40;;;4.45;;
49834;SDS011;35729;52.090;13.162;2023-05-16T09:10:26;6.30;;;3.90;;
49834;SDS011;35729;52.090;13.162;2023-05-16T09:12:57;5.40;;;3.67;;
49834;SDS011;35729;52.090;13.162;2023-05-16T09:15:30;5.65;;;3.83;;
49834;SDS011;35729;52.090;13.162;2023-05-16T09:17:59;5.35;;;4.07;;
49834;SDS011;35729;52.090;13.162;2023-05-16T09:20:29;9.50;;;4.70;;
49834;SDS011;35729;52.090;13.162;2023-05-16T09:22:58;4.75;;;3.47;;
49834;SDS011;35729;52.090;13.162;2023-05-16T09:25:27;4.63;;;3.70;;
49834;SDS011;35729;52.090;13.162;2023-05-16T09:28:00;10.35;;;3.67;;
49834;SDS011;35729;52.090;13.162;2023-05-16T09:30:29;5.18;;;2.97;;
49834;SDS011;35729;52.090;13.162;2023-05-16T09:32:58;6.85;;;3.63;;
49834;SDS011;35729;52.090;13.162;2023-05-16T09:35:27;8.38;;;3.83;;
49834;SDS011;35729;52.090;13.162;2023-05-16T09:37:55;5.40;;;3.10;;
49834;SDS011;35729;52.090;13.162;2023-05-16T09:40:24;5.60;;;2.75;;
49834;SDS011;35729;52.090;13.162;2023-05-16T09:42:53;8.32;;;3.47;;
49834;SDS011;35729;52.090;13.162;2023-05-16T09:45:33;5.60;;;3.08;;
49834;SDS011;35729;52.090;13.162;2023-05-16T09:48:03;5.55;;;3.03;;
49834;SDS011;35729;52.090;13.162;2023-05-16T09:50:32;5.15;;;2.95;;
49834;SDS011;35729;52.090;13.162;2023-05-16T09:53:01;5.70;;;3.10;;
49834;SDS011;35729;52.090;13.162;2023-05-16T09:55:30;6.78;;;3.22;;
49834;SDS011;35729;52.090;13.162;2023-05-16T09:57:59;5.28;;;2.70;;
49834;SDS011;35729;52.090;13.162;2023-05-16T10:00:31;3.92;;;2.33;;
49834;SDS011;35729;52.090;13.162;2023-05-16T10:03:01;5.93;;;2.80;;
49834;SDS011;35729;52.090;13.162;2023-05-16T10:05:30;7.22;;;2.90;;
49834;SDS011;35729;52.090;13.162;2023-05-16T10:07:58;8.10;;;2.90;;
49834;SDS011;35729;52.090;13.162;2023-05-16T10:10:30;5.88;;;3.35;;
49834;SDS011;35729;52.090;13.162;2023-05-16T10:13:02;4.43;;;2.50;;
49834;SDS011;35729;52.090;13.162;2023-05-16T10:15:37;4.80;;;3.15;;
49834;SDS011;35729;52.090;13.162;2023-05-16T10:18:06;5.07;;;2.67;;
49834;SDS011;35729;52.090;13.162;2023-05-16T10:20:38;5.53;;;2.63;;
49834;SDS011;35729;52.090;13.162;2023-05-16T10:23:09;6.38;;;3.00;;
49834;SDS011;35729;52.090;13.162;2023-05-16T10:25:43;6.80;;;2.58;;
49834;SDS011;35729;52.090;13.162;2023-05-16T10:28:13;7.50;;;2.35;;
49834;SDS011;35729;52.090;13.162;2023-05-16T10:30:44;5.97;;;2.88;;
49834;SDS011;35729;52.090;13.162;2023-05-16T10:33:15;6.50;;;2.70;;
49834;SDS011;35729;52.090;13.162;2023-05-16T10:35:45;6.93;;;2.28;;
49834;SDS011;35729;52.090;13.162;2023-05-16T10:38:15;6.60;;;2.10;;
49834;SDS011;35729;52.090;13.162;2023-05-16T10:40:45;8.55;;;3.45;;
49834;SDS011;35729;52.090;13.162;2023-05-16T10:43:21;7.50;;;2.55;;
49834;SDS011;35729;52.090;13.162;2023-05-16T10:45:58;7.88;;;2.53;;
49834;SDS011;35729;52.090;13.162;2023-05-16T10:48:31;6.60;;;2.47;;
49834;SDS011;35729;52.090;13.162;2023-05-16T10:51:01;4.80;;;1.60;;
49834;SDS011;35729;52.090;13.162;2023-05-16T10:53:30;6.68;;;2.00;;
49834;SDS011;35729;52.090;13.162;2023-05-16T10:56:07;9.65;;;2.17;;
49834;SDS011;35729;52.090;13.162;2023-05-16T10:58:43;11.77;;;2.38;;
49834;SDS011;35729;52.090;13.162;2023-05-16T11:01:20;12.55;;;2.90;;
49834;SDS011;35729;52.090;13.162;2023-05-16T11:03:59;6.30;;;2.03;;
49834;SDS011;35729;52.090;13.162;2023-05-16T11:06:33;7.80;;;2.65;;
49834;SDS011;35729;52.090;13.162;2023-05-16T11:09:06;8.55;;;2.03;;
49834;SDS011;35729;52.090;13.162;2023-05-16T11:11:46;5.45;;;2.35;;
49834;SDS011;35729;52.090;13.162;2023-05-16T11:14:21;6.63;;;2.50;;
49834;SDS011;35729;52.090;13.162;2023-05-16T11:16:55;6.28;;;2.00;;
49834;SDS011;35729;52.090;13.162;2023-05-16T11:19:29;6.28;;;2.08;;
49834;SDS011;35729;52.090;13.162;2023-05-16T11:22:06;8.13;;;2.42;;
49834;SDS011;35729;52.090;13.162;2023-05-16T11:24:49;9.35;;;2.60;;
49834;SDS011;35729;52.090;13.162;2023-05-16T11:27:20;4.00;;;1.92;;
49834;SDS011;35729;52.090;13.162;2023-05-16T11:29:50;7.25;;;2.20;;
49834;SDS011;35729;52.090;13.162;2023-05-16T11:32:22;8.98;;;1.98;;
49834;SDS011;35729;52.090;13.162;2023-05-16T11:34:51;6.00;;;1.92;;
49834;SDS011;35729;52.090;13.162;2023-05-16T11:37:20;7.45;;;1.90;;
49834;SDS011;35729;52.090;13.162;2023-05-16T11:39:48;9.30;;;2.15;;
49834;SDS011;35729;52.090;13.162;2023-05-16T11:42:18;5.75;;;1.60;;
49834;SDS011;35729;52.090;13.162;2023-05-16T11:44:47;8.13;;;1.58;;
49834;SDS011;35729;52.090;13.162;2023-05-16T11:47:16;10.25;;;2.58;;
49834;SDS011;35729;52.090;13.162;2023-05-16T11:49:47;10.05;;;2.08;;
49834;SDS011;35729;52.090;13.162;2023-05-16T11:52:15;4.50;;;1.63;;
49834;SDS011;35729;52.090;13.162;2023-05-16T11:54:45;7.15;;;2.00;;
49834;SDS011;35729;52.090;13.162;2023-05-16T11:57:14;6.63;;;1.65;;
49834;SDS011;35729;52.090;13.162;2023-05-16T11:59:43;7.55;;;2.17;;
49834;SDS011;35729;52.090;13.162;2023-05-16T12:02:11;6.93;;;2.08;;
49834;SDS011;35729;52.090;13.162;2023-05-16T12:04:40;8.27;;;1.90;;
49834;SDS011;35729;52.090;13.162;2023-05-16T12:07:11;6.25;;;1.77;;
49834;SDS011;35729;52.090;13.162;2023-05-16T12:09:39;8.25;;;1.38;;
49834;SDS011;35729;52.090;13.162;2023-05-16T12:12:08;6.97;;;1.50;;
49834;SDS011;35729;52.090;13.162;2023-05-16T12:14:38;5.22;;;1.80;;
49834;SDS011;35729;52.090;13.162;2023-05-16T12:17:06;6.28;;;1.42;;
49834;SDS011;35729;52.090;13.162;2023-05-16T12:19:35;6.38;;;1.80;;
49834;SDS011;35729;52.090;13.162;2023-05-16T12:22:04;4.85;;;1.30;;
49834;SDS011;35729;52.090;13.162;2023-05-16T12:24:35;5.78;;;1.60;;
49834;SDS011;35729;52.090;13.162;2023-05-16T12:27:08;9.55;;;2.33;;
49834;SDS011;35729;52.090;13.162;2023-05-16T12:29:36;8.13;;;2.05;;
49834;SDS011;35729;52.090;13.162;2023-05-16T12:32:06;10.32;;;2.10;;
49834;SDS011;35729;52.090;13.162;2023-05-16T12:34:35;4.95;;;1.67;;
49834;SDS011;35729;52.090;13.162;2023-05-16T12:37:04;7.38;;;2.15;;
49834;SDS011;35729;52.090;13.162;2023-05-16T12:39:38;6.20;;;1.95;;
49834;SDS011;35729;52.090;13.162;2023-05-16T12:42:06;8.32;;;2.05;;
49834;SDS011;35729;52.090;13.162;2023-05-16T12:44:35;6.25;;;2.17;;
49834;SDS011;35729;52.090;13.162;2023-05-16T12:47:05;9.60;;;1.98;;
49834;SDS011;35729;52.090;13.162;2023-05-16T12:49:43;8.35;;;2.20;;
49834;SDS011;35729;52.090;13.162;2023-05-16T12:52:16;6.03;;;1.83;;
49834;SDS011;35729;52.090;13.162;2023-05-16T12:54:47;9.85;;;2.30;;
49834;SDS011;35729;52.090;13.162;2023-05-16T12:57:16;6.97;;;2.03;;
49834;SDS011;35729;52.090;13.162;2023-05-16T12:59:44;8.18;;;1.40;;
49834;SDS011;35729;52.090;13.162;2023-05-16T13:02:13;7.80;;;1.50;;
49834;SDS011;35729;52.090;13.162;2023-05-16T13:04:43;6.28;;;1.40;;
49834;SDS011;35729;52.090;13.162;2023-05-16T13:07:11;5.75;;;1.40;;
49834;SDS011;35729;52.090;13.162;2023-05-16T13:09:41;10.50;;;2.10;;
49834;SDS011;35729;52.090;13.162;2023-05-16T13:12:12;8.88;;;1.92;;
49834;SDS011;35729;52.090;13.162;2023-05-16T13:14:41;6.28;;;1.67;;
49834;SDS011;35729;52.090;13.162;2023-05-16T13:17:09;5.13;;;1.52;;
49834;SDS011;35729;52.090;13.162;2023-05-16T13:19:38;6.68;;;1.85;;
49834;SDS011;35729;52.090;13.162;2023-05-16T13:22:07;9.32;;;2.00;;
49834;SDS011;35729;52.090;13.162;2023-05-16T13:24:35;8.13;;;2.00;;
49834;SDS011;35729;52.090;13.162;2023-05-16T13:27:04;8.82;;;1.42;;
49834;SDS011;35729;52.090;13.162;2023-05-16T13:29:35;5.50;;;1.40;;
49834;SDS011;35729;52.090;13.162;2023-05-16T13:32:04;6.47;;;1.80;;
49834;SDS011;35729;52.090;13.162;2023-05-16T13:34:33;8.98;;;2.00;;
49834;SDS011;35729;52.090;13.162;2023-05-16T13:37:02;4.22;;;1.05;;
49834;SDS011;35729;52.090;13.162;2023-05-16T13:39:31;4.40;;;1.10;;
49834;SDS011;35729;52.090;13.162;2023-05-16T13:42:00;6.80;;;1.77;;
49834;SDS011;35729;52.090;13.162;2023-05-16T13:44:28;4.32;;;1.27;;
49834;SDS011;35729;52.090;13.162;2023-05-16T13:47:00;4.45;;;1.20;;
49834;SDS011;35729;52.090;13.162;2023-05-16T13:49:28;7.50;;;1.35;;
49834;SDS011;35729;52.090;13.162;2023-05-16T13:51:57;9.60;;;1.48;;
49834;SDS011;35729;52.090;13.162;2023-05-16T13:54:25;6.57;;;1.45;;
49834;SDS011;35729;52.090;13.162;2023-05-16T13:56:54;8.18;;;1.65;;
49834;SDS011;35729;52.090;13.162;2023-05-16T13:59:29;5.80;;;1.35;;
49834;SDS011;35729;52.090;13.162;2023-05-16T14:02:01;9.23;;;1.90;;
49834;SDS011;35729;52.090;13.162;2023-05-16T14:04:29;6.30;;;1.40;;
49834;SDS011;35729;52.090;13.162;2023-05-16T14:06:58;6.70;;;1.38;;
49834;SDS011;35729;52.090;13.162;2023-05-16T14:09:26;3.00;;;1.00;;
49834;SDS011;35729;52.090;13.162;2023-05-16T14:11:55;6.55;;;1.17;;
49834;SDS011;35729;52.090;13.162;2023-05-16T14:14:24;4.05;;;0.90;;
49834;SDS011;35729;52.090;13.162;2023-05-16T14:16:52;7.53;;;1.55;;
49834;SDS011;35729;52.090;13.162;2023-05-16T14:19:23;5.78;;;1.35;;
49834;SDS011;35729;52.090;13.162;2023-05-16T14:21:52;4.65;;;1.15;;
49834;SDS011;35729;52.090;13.162;2023-05-16T14:24:20;5.22;;;0.90;;
49834;SDS011;35729;52.090;13.162;2023-05-16T14:26:49;6.80;;;1.20;;
49834;SDS011;35729;52.090;13.162;2023-05-16T14:29:19;6.03;;;1.00;;
49834;SDS011;35729;52.090;13.162;2023-05-16T14:31:48;6.65;;;1.23;;
49834;SDS011;35729;52.090;13.162;2023-05-16T14:34:16;5.53;;;1.30;;
49834;SDS011;35729;52.090;13.162;2023-05-16T14:36:48;5.55;;;1.02;;
49834;SDS011;35729;52.090;13.162;2023-05-16T14:39:24;5.72;;;1.50;;